Time;durP1;ratioP1;P1;durP2;ratioP2;P2;SDS_P1;SDS_P2;PMS_P1;PMS_P2;Temp;Humidity;BMP_temperature;BMP_pressure;BME280_temperature;BME280_humidity;BME280_pressure;Samples;Min_cycle;Max_cycle;Signal;HPM_P1;HPM_P2
2023/04/16 00:00:09;;;;;;;80.97;33.65;;;8.60;99.90;;;;;;5070649;28;20189;-80
2023/04/16 00:02:35;;;;;;;77.13;33.75;;;8.60;99.90;;;;;;5071385;28;20052;-80
2023/04/16 00:05:01;;;;;;;86.13;35.65;;;8.70;99.90;;;;;;5073928;28;20041;-81
2023/04/16 00:07:27;;;;;;;71.65;34.33;;;8.60;99.90;;;;;;5070085;28;20048;-79
2023/04/16 00:09:52;;;;;;;66.38;31.73;;;8.70;99.90;;;;;;5070698;28;20430;-80
2023/04/16 00:12:18;;;;;;;79.63;33.80;;;8.70;99.90;;;;;;5070881;28;20055;-81
2023/04/16 00:14:43;;;;;;;75.50;32.58;;;8.70;99.90;;;;;;5053558;28;20080;-80
2023/04/16 00:17:10;;;;;;;73.70;31.25;;;8.70;99.90;;;;;;5070883;28;20471;-79
2023/04/16 00:19:35;;;;;;;76.88;31.55;;;8.60;99.90;;;;;;5069393;28;20393;-79
2023/04/16 00:22:01;;;;;;;76.47;33.83;;;8.70;99.90;;;;;;5070401;28;20094;-80
2023/04/16 00:24:27;;;;;;;79.72;32.83;;;8.60;99.90;;;;;;5069775;28;20485;-81
2023/04/16 00:26:52;;;;;;;56.28;25.30;;;8.60;99.90;;;;;;5071482;28;20044;-82
2023/04/16 00:29:18;;;;;;;71.70;30.60;;;8.70;99.90;;;;;;5074876;28;20049;-81
2023/04/16 00:31:43;;;;;;;66.70;32.63;;;8.70;99.90;;;;;;5071050;28;20135;-80
2023/04/16 00:34:09;;;;;;;81.45;32.00;;;8.60;99.90;;;;;;5075817;28;20051;-78
2023/04/16 00:36:35;;;;;;;74.03;31.92;;;8.60;99.90;;;;;;5072121;28;20087;-81
2023/04/16 00:39:01;;;;;;;75.65;32.63;;;8.60;99.90;;;;;;5070070;28;20615;-81
2023/04/16 00:41:27;;;;;;;83.68;33.85;;;8.60;99.90;;;;;;5068744;28;20365;-81
2023/04/16 00:43:53;;;;;;;83.40;34.33;;;8.50;99.90;;;;;;5070092;28;20048;-81
2023/04/16 00:46:20;;;;;;;71.05;32.08;;;8.50;99.90;;;;;;5052629;28;20045;-81
2023/04/16 00:48:45;;;;;;;75.82;34.83;;;8.50;99.90;;;;;;5052490;28;20052;-80
2023/04/16 00:51:11;;;;;;;77.53;32.63;;;8.50;99.90;;;;;;5068872;28;20052;-81
2023/04/16 00:53:37;;;;;;;71.35;33.17;;;8.60;99.90;;;;;;5051521;28;20060;-80
2023/04/16 00:56:04;;;;;;;76.60;35.75;;;8.60;99.90;;;;;;5069548;28;20490;-81
2023/04/16 00:58:31;;;;;;;95.10;37.15;;;8.50;99.90;;;;;;5068560;28;20057;-80
2023/04/16 01:00:57;;;;;;;90.70;39.22;;;8.40;99.90;;;;;;5068427;28;20581;-81
2023/04/16 01:03:23;;;;;;;89.45;37.95;;;8.40;99.90;;;;;;5069291;28;20135;-80
2023/04/16 01:05:49;;;;;;;88.15;37.50;;;8.40;99.90;;;;;;5034152;28;20476;-81
2023/04/16 01:08:19;;;;;;;97.90;39.28;;;8.40;99.90;;;;;;5067734;28;20053;-79
2023/04/16 01:10:45;;;;;;;87.45;35.67;;;8.40;99.90;;;;;;5035451;28;20587;-80
2023/04/16 01:13:11;;;;;;;78.15;31.52;;;8.40;99.90;;;;;;5069544;28;20131;-81
2023/04/16 01:15:36;;;;;;;96.57;39.63;;;8.40;99.90;;;;;;5068294;28;20088;-80
2023/04/16 01:18:02;;;;;;;89.15;39.40;;;8.40;99.90;;;;;;5068066;28;20123;-80
2023/04/16 01:20:28;;;;;;;98.85;39.72;;;8.30;99.90;;;;;;5068334;28;20048;-79
2023/04/16 01:22:54;;;;;;;94.75;38.42;;;8.30;99.90;;;;;;5067840;28;20040;-81
2023/04/16 01:25:19;;;;;;;104.32;41.45;;;8.30;99.90;;;;;;5067695;28;20054;-79
2023/04/16 01:27:48;;;;;;;102.55;40.58;;;8.20;99.90;;;;;;5069757;28;20144;-81
2023/04/16 01:30:14;;;;;;;90.85;37.72;;;8.30;99.90;;;;;;5051688;28;20446;-81
2023/04/16 01:32:39;;;;;;;88.63;37.70;;;8.40;99.90;;;;;;5051751;28;20055;-81
2023/04/16 01:35:05;;;;;;;86.28;39.67;;;8.40;99.90;;;;;;5051466;28;20143;-80
2023/04/16 01:37:31;;;;;;;95.40;43.83;;;8.30;99.90;;;;;;5066855;28;20111;-79
2023/04/16 01:39:57;;;;;;;104.32;41.42;;;8.30;99.90;;;;;;5069330;28;20048;-81
2023/04/16 01:42:22;;;;;;;99.10;40.63;;;8.30;99.90;;;;;;5050868;28;20044;-80
2023/04/16 01:44:49;;;;;;;108.60;42.03;;;8.20;99.90;;;;;;5051956;28;20160;-79
2023/04/16 01:47:14;;;;;;;112.25;45.30;;;8.20;99.90;;;;;;5073472;28;20048;-79
2023/04/16 01:49:41;;;;;;;111.25;45.08;;;8.20;99.90;;;;;;5071695;28;20055;-81
2023/04/16 01:52:07;;;;;;;106.63;44.22;;;8.20;99.90;;;;;;5051608;28;20040;-78
2023/04/16 01:54:33;;;;;;;101.78;41.28;;;8.20;99.90;;;;;;5068691;28;20048;-79
2023/04/16 01:56:58;;;;;;;111.10;42.97;;;8.20;99.90;;;;;;5068990;28;20048;-80
2023/04/16 01:59:24;;;;;;;94.80;38.28;;;8.20;99.90;;;;;;5067509;28;20094;-81
2023/04/16 02:01:50;;;;;;;105.57;42.75;;;8.20;99.90;;;;;;5067456;28;20159;-81
2023/04/16 02:04:15;;;;;;;108.65;44.08;;;8.20;99.90;;;;;;5069832;28;20053;-81
2023/04/16 02:06:41;;;;;;;103.32;43.05;;;8.20;99.90;;;;;;5068562;28;20055;-81
2023/04/16 02:09:07;;;;;;;112.10;43.22;;;8.10;99.90;;;;;;5051292;28;20047;-80
2023/04/16 02:11:39;;;;;;;113.63;43.20;;;8.10;99.90;;;;;;5067477;28;20059;-80
2023/04/16 02:14:05;;;;;;;105.97;42.70;;;8.10;99.90;;;;;;5069250;28;20056;-81
2023/04/16 02:16:30;;;;;;;82.50;32.70;;;8.10;99.90;;;;;;5068671;28;20056;-79
2023/04/16 02:18:56;;;;;;;106.90;42.30;;;8.20;99.90;;;;;;5069654;28;20107;-82
2023/04/16 02:21:21;;;;;;;101.38;42.10;;;8.20;99.90;;;;;;5073354;28;20051;-80
2023/04/16 02:23:50;;;;;;;105.55;41.35;;;8.10;99.90;;;;;;5073325;28;20049;-80
2023/04/16 02:26:16;;;;;;;107.60;42.50;;;8.10;99.90;;;;;;5071827;28;20499;-80
2023/04/16 02:28:41;;;;;;;104.90;42.38;;;8.10;99.90;;;;;;5071707;28;20048;-81
2023/04/16 02:31:08;;;;;;;110.35;44.08;;;7.50;99.90;;;;;;5054533;28;20062;-80
2023/04/16 02:33:34;;;;;;;116.55;43.17;;;8.10;99.90;;;;;;5070784;28;20053;-79
2023/04/16 02:36:00;;;;;;;106.75;39.35;;;8.10;99.90;;;;;;5071687;28;20096;-81
2023/04/16 02:38:26;;;;;;;112.18;40.92;;;8.10;99.90;;;;;;5070652;28;20055;-81
2023/04/16 02:40:51;;;;;;;105.85;39.83;;;8.10;99.90;;;;;;5072370;28;20048;-80
2023/04/16 02:43:17;;;;;;;101.13;39.58;;;8.10;99.90;;;;;;5072164;28;20049;-79
2023/04/16 02:45:43;;;;;;;103.65;40.70;;;8.00;99.90;;;;;;5071825;28;20361;-79
2023/04/16 02:48:09;;;;;;;115.18;41.55;;;8.00;99.90;;;;;;5071858;28;20495;-81
2023/04/16 02:50:35;;;;;;;106.03;37.25;;;7.80;99.90;;;;;;5070717;28;20057;-80
2023/04/16 02:53:00;;;;;;;104.75;38.20;;;8.00;99.90;;;;;;5072353;28;20044;-80
2023/04/16 02:55:28;;;;;;;86.72;38.63;;;8.00;99.90;;;;;;5072204;28;20719;-81
2023/04/16 02:57:53;;;;;;;91.35;37.80;;;8.10;99.90;;;;;;5088303;28;20056;-79
2023/04/16 03:00:19;;;;;;;92.20;37.45;;;8.00;99.90;;;;;;5074058;28;20056;-80
2023/04/16 03:02:45;;;;;;;90.75;36.13;;;7.90;99.90;;;;;;5077003;28;20079;-79
2023/04/16 03:05:11;;;;;;;92.45;34.17;;;7.90;99.90;;;;;;5073756;28;20087;-79
2023/04/16 03:07:38;;;;;;;88.47;35.35;;;8.00;99.90;;;;;;5070062;28;20056;-79
2023/04/16 03:10:05;;;;;;;82.07;35.00;;;8.00;99.90;;;;;;5072174;28;20062;-79
2023/04/16 03:12:30;;;;;;;108.78;37.78;;;8.00;99.90;;;;;;5053887;28;20135;-80
2023/04/16 03:14:56;;;;;;;92.55;36.53;;;7.90;99.90;;;;;;5072048;28;20100;-80
2023/04/16 03:17:22;;;;;;;85.50;35.40;;;7.90;99.90;;;;;;5070402;28;20836;-79
2023/04/16 03:19:49;;;;;;;99.40;38.10;;;7.90;99.90;;;;;;5070143;28;20052;-80
2023/04/16 03:22:15;;;;;;;109.35;36.50;;;7.90;99.90;;;;;;5070037;28;20048;-80
2023/04/16 03:24:40;;;;;;;113.50;35.88;;;7.90;99.90;;;;;;5071688;28;20136;-81
2023/04/16 03:27:06;;;;;;;107.93;34.33;;;7.90;99.90;;;;;;5071966;28;20040;-80
2023/04/16 03:29:32;;;;;;;77.70;31.70;;;8.10;99.90;;;;;;5053370;28;20048;-80
2023/04/16 03:31:57;;;;;;;96.95;31.73;;;8.30;99.90;;;;;;5070326;28;20070;-80
2023/04/16 03:34:23;;;;;;;58.78;22.85;;;8.30;99.90;;;;;;5053526;28;20052;-79
2023/04/16 03:36:49;;;;;;;105.07;32.75;;;8.40;99.90;;;;;;5069750;28;20110;-81
2023/04/16 03:39:15;;;;;;;77.97;32.38;;;8.40;99.90;;;;;;5071352;28;20519;-81
2023/04/16 03:41:41;;;;;;;77.68;29.92;;;8.50;99.90;;;;;;5071520;28;20048;-81
2023/04/16 03:44:07;;;;;;;88.82;34.97;;;8.50;99.90;;;;;;5070881;28;20045;-81
2023/04/16 03:46:33;;;;;;;101.63;35.78;;;8.30;99.90;;;;;;5071089;28;20083;-80
2023/04/16 03:48:58;;;;;;;95.18;34.90;;;8.30;99.90;;;;;;5070040;28;20059;-80
2023/04/16 03:51:25;;;;;;;101.68;37.63;;;8.30;99.90;;;;;;5069452;28;20443;-80
2023/04/16 03:53:50;;;;;;;122.38;41.13;;;8.20;99.90;;;;;;5071120;28;20131;-80
2023/04/16 03:56:16;;;;;;;101.88;36.40;;;8.20;99.90;;;;;;5069970;28;20577;-81
2023/04/16 03:58:42;;;;;;;86.53;34.97;;;8.30;99.90;;;;;;5071360;28;20044;-80
2023/04/16 04:01:07;;;;;;;88.75;32.90;;;8.40;99.90;;;;;;5069291;28;20036;-79
2023/04/16 04:03:33;;;;;;;94.93;38.80;;;8.50;99.90;;;;;;5070797;28;20135;-82
2023/04/16 04:05:59;;;;;;;96.63;36.47;;;8.30;99.90;;;;;;5068389;28;20045;-81
2023/04/16 04:08:25;;;;;;;93.03;38.03;;;8.30;99.90;;;;;;5052974;28;20048;-81
2023/04/16 04:10:50;;;;;;;93.78;36.22;;;8.30;99.90;;;;;;5069821;28;20063;-80
2023/04/16 04:13:16;;;;;;;75.88;35.13;;;8.30;99.90;;;;;;5070188;28;20484;-81
2023/04/16 04:15:43;;;;;;;104.43;38.50;;;8.30;99.90;;;;;;5076846;28;20048;-80
2023/04/16 04:18:08;;;;;;;107.72;39.15;;;8.40;99.90;;;;;;5056767;28;20454;-79
2023/04/16 04:20:37;;;;;;;87.53;35.58;;;8.30;99.90;;;;;;5053416;28;20057;-80
2023/04/16 04:23:03;;;;;;;99.18;37.55;;;8.30;99.90;;;;;;5069656;28;20049;-80
2023/04/16 04:25:29;;;;;;;111.05;39.65;;;8.20;99.90;;;;;;5070936;28;20059;-81
2023/04/16 04:27:55;;;;;;;106.45;39.33;;;8.20;99.90;;;;;;5071520;28;20051;-81
2023/04/16 04:30:23;;;;;;;104.32;39.85;;;8.10;99.90;;;;;;5070035;28;20476;-79
2023/04/16 04:32:49;;;;;;;104.40;39.95;;;8.10;99.90;;;;;;5036852;28;20064;-80
2023/04/16 04:35:15;;;;;;;106.00;38.63;;;8.00;99.90;;;;;;5052689;28;20049;-81
2023/04/16 04:37:40;;;;;;;95.78;38.60;;;8.00;99.90;;;;;;5071743;28;20055;-80
2023/04/16 04:40:08;;;;;;;100.22;38.78;;;8.00;99.90;;;;;;5069587;28;20071;-80
2023/04/16 04:42:35;;;;;;;91.05;39.67;;;8.00;99.90;;;;;;5069719;28;20060;-81
2023/04/16 04:45:01;;;;;;;99.07;37.58;;;8.00;99.90;;;;;;5068364;28;20377;-79
2023/04/16 04:47:26;;;;;;;94.95;39.00;;;8.10;99.90;;;;;;5052107;28;20055;-80
2023/04/16 04:49:52;;;;;;;93.80;36.63;;;8.00;99.90;;;;;;5069077;28;20128;-80
2023/04/16 04:52:19;;;;;;;97.75;38.50;;;8.00;99.90;;;;;;5052117;28;20054;-80
2023/04/16 04:54:45;;;;;;;85.88;37.65;;;8.00;99.90;;;;;;5070191;28;20104;-81
2023/04/16 04:57:10;;;;;;;83.38;36.65;;;8.00;99.90;;;;;;5051836;28;20076;-82
2023/04/16 04:59:36;;;;;;;93.18;39.08;;;8.00;99.90;;;;;;5069761;28;20090;-81
2023/04/16 05:02:02;;;;;;;98.68;40.22;;;8.00;99.90;;;;;;5067954;28;20056;-81
2023/04/16 05:04:29;;;;;;;98.55;39.50;;;8.00;99.90;;;;;;5069485;28;20132;-79
2023/04/16 05:06:54;;;;;;;95.03;37.17;;;8.00;99.90;;;;;;5068991;28;20089;-81
2023/04/16 05:09:20;;;;;;;99.30;37.40;;;8.00;99.90;;;;;;5071732;28;20079;-80
2023/04/16 05:11:46;;;;;;;96.20;37.33;;;8.00;99.90;;;;;;5073328;28;20573;-80
2023/04/16 05:14:11;;;;;;;93.35;37.53;;;8.00;99.90;;;;;;5069519;28;20055;-80
2023/04/16 05:16:38;;;;;;;91.25;37.50;;;8.00;99.90;;;;;;5068083;28;20048;-79
2023/04/16 05:19:03;;;;;;;96.63;36.88;;;6.80;99.90;;;;;;5034934;28;20048;-80
2023/04/16 05:21:29;;;;;;;102.35;37.88;;;7.90;99.90;;;;;;5069293;28;20105;-81
2023/04/16 05:23:55;;;;;;;97.70;39.60;;;7.90;99.90;;;;;;5051521;28;20052;-79
2023/04/16 05:26:21;;;;;;;101.63;36.35;;;8.10;99.90;;;;;;5068091;28;20135;-81
2023/04/16 05:28:47;;;;;;;90.75;37.67;;;7.90;99.90;;;;;;5070315;28;20044;-80
2023/04/16 05:31:13;;;;;;;77.40;35.28;;;7.90;99.90;;;;;;5073218;28;20041;-79
2023/04/16 05:33:44;;;;;;;81.22;36.45;;;7.90;99.90;;;;;;5071106;28;20055;-79
2023/04/16 05:36:09;;;;;;;83.97;35.47;;;7.90;99.90;;;;;;5068383;28;20052;-80
2023/04/16 05:38:35;;;;;;;94.63;34.92;;;7.90;99.90;;;;;;5069059;28;20065;-81
2023/04/16 05:41:01;;;;;;;75.22;34.40;;;7.90;99.90;;;;;;5068593;28;20127;-79
2023/04/16 05:43:26;;;;;;;91.30;36.05;;;7.90;99.90;;;;;;5067631;28;20059;-80
2023/04/16 05:45:52;;;;;;;74.68;34.83;;;7.90;99.90;;;;;;5050677;28;20056;-81
2023/04/16 05:48:18;;;;;;;87.15;35.80;;;7.90;99.90;;;;;;5068728;28;20547;-80
2023/04/16 05:50:44;;;;;;;83.53;37.92;;;7.90;99.90;;;;;;5066286;28;20636;-82
2023/04/16 05:53:12;;;;;;;90.05;37.95;;;7.90;99.90;;;;;;5070940;28;20080;-81
2023/04/16 05:55:38;;;;;;;86.28;36.22;;;7.90;99.90;;;;;;5072304;28;20059;-80
2023/04/16 05:58:04;;;;;;;88.93;38.20;;;7.90;99.90;;;;;;5072593;28;20048;-81
2023/04/16 06:00:30;;;;;;;83.47;36.30;;;7.90;99.90;;;;;;5071555;28;20110;-80
2023/04/16 06:02:56;;;;;;;96.05;37.85;;;8.00;99.90;;;;;;5071385;28;20047;-79
2023/04/16 06:05:22;;;;;;;103.45;39.10;;;8.00;99.90;;;;;;5072498;28;20040;-81
2023/04/16 06:07:47;;;;;;;85.95;35.35;;;8.00;99.90;;;;;;5071768;28;20040;-82
2023/04/16 06:10:13;;;;;;;100.43;36.47;;;8.10;99.90;;;;;;5071006;28;20044;-81
2023/04/16 06:12:39;;;;;;;85.43;36.50;;;8.10;99.90;;;;;;5072083;28;20431;-80
2023/04/16 06:15:05;;;;;;;86.50;36.35;;;8.10;99.90;;;;;;5070880;28;20044;-79
2023/04/16 06:17:30;;;;;;;97.55;36.10;;;8.20;99.90;;;;;;5070701;28;20051;-80
2023/04/16 06:19:56;;;;;;;87.38;36.45;;;8.20;99.90;;;;;;5070633;28;20052;-80
2023/04/16 06:22:22;;;;;;;92.00;36.65;;;8.30;99.90;;;;;;5071020;28;20044;-79
2023/04/16 06:24:49;;;;;;;85.55;36.90;;;8.30;99.90;;;;;;5054354;28;20067;-79
2023/04/16 06:27:15;;;;;;;84.65;36.05;;;8.40;99.90;;;;;;5071639;28;20048;-80
2023/04/16 06:29:41;;;;;;;76.57;37.42;;;8.40;99.90;;;;;;5072808;28;20048;-80
2023/04/16 06:32:08;;;;;;;76.13;36.42;;;8.50;99.90;;;;;;5054367;28;20057;-79
2023/04/16 06:34:34;;;;;;;78.43;36.35;;;8.50;99.90;;;;;;5072143;28;20052;-80
2023/04/16 06:37:00;;;;;;;80.78;36.58;;;8.60;99.90;;;;;;5069823;28;20068;-80
2023/04/16 06:39:25;;;;;;;76.15;35.47;;;8.70;99.90;;;;;;5074889;28;20063;-80
2023/04/16 06:41:51;;;;;;;68.60;35.67;;;8.70;99.90;;;;;;5070373;28;20071;-81
2023/04/16 06:44:16;;;;;;;73.68;34.55;;;8.80;99.90;;;;;;5076784;28;20040;-80
2023/04/16 06:46:42;;;;;;;72.20;34.53;;;8.90;99.90;;;;;;5076661;28;20055;-80
2023/04/16 06:49:08;;;;;;;62.75;33.17;;;8.90;99.90;;;;;;5070501;28;20071;-81
2023/04/16 06:51:33;;;;;;;64.45;34.30;;;8.90;99.90;;;;;;5070069;28;20141;-81
2023/04/16 06:53:59;;;;;;;69.20;36.72;;;9.00;99.90;;;;;;5069990;28;20048;-80
2023/04/16 06:56:25;;;;;;;61.83;32.20;;;9.00;99.90;;;;;;5070354;28;20056;-80
2023/04/16 06:58:51;;;;;;;60.88;31.33;;;9.00;99.90;;;;;;5069772;28;20056;-80
2023/04/16 07:01:17;;;;;;;57.92;31.33;;;9.10;99.90;;;;;;5069959;28;20059;-82
2023/04/16 07:03:42;;;;;;;57.42;30.20;;;9.00;99.90;;;;;;5069880;28;20048;-80
2023/04/16 07:06:09;;;;;;;66.28;33.10;;;9.10;99.90;;;;;;5069117;28;20245;-80
2023/04/16 07:08:34;;;;;;;56.05;31.27;;;9.10;99.90;;;;;;5052370;28;20041;-85
2023/04/16 07:11:00;;;;;;;63.80;30.55;;;9.10;99.90;;;;;;5069838;28;20114;-85
2023/04/16 07:13:26;;;;;;;59.70;31.23;;;9.10;99.90;;;;;;5044377;28;20044;-85
2023/04/16 07:15:52;;;;;;;52.60;27.45;;;9.20;99.90;;;;;;5070491;28;20044;-85
2023/04/16 07:18:18;;;;;;;56.63;28.13;;;9.20;99.90;;;;;;5069804;28;20095;-84
2023/04/16 07:20:43;;;;;;;54.78;29.15;;;9.20;99.90;;;;;;5072738;28;20044;-84
2023/04/16 07:23:09;;;;;;;53.80;29.40;;;9.20;99.90;;;;;;5071882;28;20106;-85
2023/04/16 07:25:35;;;;;;;54.08;29.02;;;9.10;99.90;;;;;;5070830;28;20131;-84
2023/04/16 07:28:02;;;;;;;54.15;27.70;;;9.10;99.90;;;;;;5052429;28;20044;-84
2023/04/16 07:30:32;;;;;;;56.28;29.23;;;9.10;99.90;;;;;;5052899;28;20044;-81
2023/04/16 07:33:02;;;;;;;56.85;27.75;;;9.10;99.90;;;;;;5053480;28;20720;-81
2023/04/16 07:35:28;;;;;;;56.72;29.88;;;9.20;99.90;;;;;;5068613;28;20113;-85
2023/04/16 07:37:53;;;;;;;55.65;28.23;;;9.20;99.90;;;;;;5051165;28;20715;-83
2023/04/16 07:40:19;;;;;;;54.63;28.88;;;9.20;99.90;;;;;;5052287;28;20064;-86
2023/04/16 07:42:45;;;;;;;57.03;29.52;;;9.30;99.90;;;;;;5069157;28;20040;-85
2023/04/16 07:45:11;;;;;;;52.42;27.85;;;9.40;99.90;;;;;;5070997;28;20047;-85
2023/04/16 07:47:37;;;;;;;48.35;28.02;;;9.40;99.90;;;;;;5052880;28;20077;-85
2023/04/16 07:50:06;;;;;;;48.58;26.92;;;9.50;99.90;;;;;;5069492;28;20496;-85
2023/04/16 07:52:32;;;;;;;48.40;26.10;;;9.60;99.90;;;;;;5039370;28;20044;-84
2023/04/16 07:54:58;;;;;;;46.03;25.58;;;9.60;99.90;;;;;;5078371;28;20040;-86
2023/04/16 07:57:23;;;;;;;46.60;25.95;;;9.60;99.90;;;;;;5081325;28;20492;-82
2023/04/16 07:59:53;;;;;;;45.90;25.35;;;9.60;99.90;;;;;;5063008;28;20056;-81
2023/04/16 08:02:26;;;;;;;49.53;25.70;;;9.60;99.90;;;;;;5067714;28;20040;-81
2023/04/16 08:04:52;;;;;;;39.22;24.13;;;9.80;99.90;;;;;;5051839;28;20064;-85
2023/04/16 08:07:24;;;;;;;44.30;25.70;;;10.00;99.90;;;;;;5052411;28;20067;-83
2023/04/16 08:09:55;;;;;;;48.40;24.63;;;10.00;99.90;;;;;;5051063;28;20056;-84
2023/04/16 08:12:21;;;;;;;40.65;24.17;;;10.00;99.90;;;;;;5018894;28;20057;-86
2023/04/16 08:14:48;;;;;;;42.45;23.13;;;10.10;99.90;;;;;;5067597;28;20048;-85
2023/04/16 08:17:19;;;;;;;44.47;25.10;;;10.20;99.90;;;;;;5051929;28;20048;-82
2023/04/16 08:19:45;;;;;;;40.72;23.38;;;10.30;99.90;;;;;;5051924;28;20041;-83
2023/04/16 08:22:12;;;;;;;37.58;22.15;;;10.40;99.90;;;;;;5067705;28;20125;-83
2023/04/16 08:24:39;;;;;;;46.53;23.30;;;10.40;99.90;;;;;;5069037;28;20051;-82
2023/04/16 08:27:04;;;;;;;42.63;22.75;;;10.50;99.90;;;;;;5067730;28;20040;-84
2023/04/16 08:29:30;;;;;;;39.28;23.05;;;10.70;99.90;;;;;;5068016;28;20052;-81
2023/04/16 08:32:04;;;;;;;40.13;22.02;;;11.00;99.90;;;;;;5035712;28;20064;-80
2023/04/16 08:34:32;;;;;;;39.25;23.05;;;11.10;99.90;;;;;;5066657;28;20139;-80
2023/04/16 08:36:59;;;;;;;33.35;21.13;;;11.40;99.90;;;;;;5067385;28;20056;-81
2023/04/16 08:39:28;;;;;;;33.80;19.15;;;11.50;99.90;;;;;;5068844;28;20056;-81
2023/04/16 08:41:54;;;;;;;31.42;19.67;;;12.00;99.90;;;;;;5069055;28;20060;-80
2023/04/16 08:44:28;;;;;;;39.67;21.08;;;12.20;99.90;;;;;;5051704;28;20059;-81
2023/04/16 08:46:57;;;;;;;32.00;19.80;;;10.90;99.90;;;;;;5067097;28;20489;-81
2023/04/16 08:49:24;;;;;;;34.13;20.15;;;12.20;99.90;;;;;;5068280;28;20068;-81
2023/04/16 08:51:52;;;;;;;31.67;19.13;;;12.40;99.90;;;;;;5034708;28;20056;-81
2023/04/16 08:54:43;;;;;;;37.67;19.05;;;12.70;99.90;;;;;;5051920;28;20520;-80
2023/04/16 08:57:12;;;;;;;34.38;18.52;;;12.90;99.90;;;;;;5069442;28;20052;-80
2023/04/16 08:59:41;;;;;;;29.05;17.92;;;13.20;99.90;;;;;;5034515;28;20052;-81
2023/04/16 09:02:15;;;;;;;31.02;17.98;;;13.70;99.90;;;;;;5068213;28;20141;-81
2023/04/16 09:04:55;;;;;;;29.50;17.38;;;13.50;99.90;;;;;;5068153;28;20055;-80
2023/04/16 09:07:21;;;;;;;32.35;17.38;;;13.10;99.90;;;;;;5067221;28;20068;-81
2023/04/16 09:09:48;;;;;;;24.48;17.00;;;13.30;99.90;;;;;;5068196;28;20053;-80
2023/04/16 09:12:14;;;;;;;21.92;14.65;;;13.50;99.90;;;;;;5074236;28;20055;-79
2023/04/16 09:14:41;;;;;;;29.88;16.67;;;14.10;99.90;;;;;;5038612;28;20052;-81
2023/04/16 09:17:08;;;;;;;25.95;16.67;;;14.30;99.90;;;;;;5051751;28;20392;-80
2023/04/16 09:19:34;;;;;;;23.25;15.85;;;13.90;99.90;;;;;;5068130;28;20131;-81
2023/04/16 09:22:12;;;;;;;23.90;14.52;;;14.00;99.90;;;;;;5050269;28;20518;-80
2023/04/16 09:24:41;;;;;;;25.38;16.48;;;14.50;99.90;;;;;;5068339;28;20052;-83
2023/04/16 09:27:07;;;;;;;23.92;14.82;;;14.30;99.90;;;;;;5050893;28;20087;-85
2023/04/16 09:29:37;;;;;;;28.42;15.88;;;14.20;99.90;;;;;;5066343;28;20722;-81
2023/04/16 09:32:10;;;;;;;24.45;16.48;;;14.70;99.90;;;;;;5066044;28;20047;-83
2023/04/16 09:34:56;;;;;;;27.45;16.80;;;14.40;99.90;;;;;;5060424;28;20055;-83
2023/04/16 09:37:21;;;;;;;28.02;16.35;;;14.00;99.90;;;;;;5065914;28;20478;-84
2023/04/16 09:40:06;;;;;;;26.40;14.68;;;14.70;99.90;;;;;;5065309;28;20052;-82
2023/04/16 09:42:38;;;;;;;25.55;16.35;;;14.90;99.90;;;;;;5051097;28;20162;-80
2023/04/16 09:45:04;;;;;;;29.23;16.45;;;14.70;99.90;;;;;;5068289;28;20048;-80
2023/04/16 09:47:43;;;;;;;25.30;16.45;;;14.40;99.90;;;;;;5066911;28;20454;-81
2023/04/16 09:50:09;;;;;;;28.90;16.98;;;14.60;99.90;;;;;;5067050;28;20190;-81
2023/04/16 09:52:36;;;;;;;25.20;16.58;;;14.30;99.90;;;;;;5050849;28;20129;-82
2023/04/16 09:55:02;;;;;;;31.50;16.58;;;14.50;99.90;;;;;;5050152;28;20051;-82
2023/04/16 09:57:27;;;;;;;22.88;15.88;;;14.00;99.90;;;;;;5069321;28;20380;-82
2023/04/16 09:59:56;;;;;;;27.15;16.00;;;14.20;99.90;;;;;;5052480;28;20102;-82
2023/04/16 10:02:28;;;;;;;22.30;16.10;;;14.40;99.90;;;;;;5051960;28;20044;-81
2023/04/16 10:05:18;;;;;;;25.13;16.38;;;14.30;99.90;;;;;;5030272;28;20166;-81
2023/04/16 10:08:01;;;;;;;25.23;15.75;;;14.60;99.90;;;;;;5070166;28;20522;-80
2023/04/16 10:10:39;;;;;;;22.30;15.18;;;14.40;99.90;;;;;;5082927;28;20114;-82
2023/04/16 10:13:05;;;;;;;25.40;16.45;;;15.00;99.90;;;;;;5084103;28;20067;-82
2023/04/16 10:15:30;;;;;;;25.58;15.80;;;15.20;99.90;;;;;;5068845;28;20048;-81
2023/04/16 10:17:56;;;;;;;29.15;16.17;;;15.40;99.90;;;;;;5066927;28;20130;-81
2023/04/16 10:20:22;;;;;;;23.98;15.82;;;15.90;99.90;;;;;;5050917;28;20071;-80
2023/04/16 10:22:47;;;;;;;21.90;14.25;;;15.30;99.90;;;;;;5052605;28;20060;-80
2023/04/16 10:25:13;;;;;;;20.65;13.73;;;16.20;99.90;;;;;;5054388;28;20561;-80
2023/04/16 10:27:39;;;;;;;19.88;12.30;;;16.00;99.90;;;;;;5074047;28;20044;-79
2023/04/16 10:30:06;;;;;;;22.92;14.52;;;16.10;99.90;;;;;;5067765;28;20052;-82
2023/04/16 10:32:32;;;;;;;25.52;15.80;;;16.20;99.90;;;;;;5067099;28;20059;-82
2023/04/16 10:34:57;;;;;;;23.48;14.55;;;15.20;99.90;;;;;;5050306;28;20044;-82
2023/04/16 10:37:30;;;;;;;21.05;15.10;;;16.00;99.90;;;;;;5066320;28;20446;-82
2023/04/16 10:39:56;;;;;;;23.92;15.35;;;16.10;99.90;;;;;;5068040;28;20056;-82
2023/04/16 10:42:22;;;;;;;23.35;14.70;;;15.70;99.90;;;;;;5054359;28;20052;-81
2023/04/16 10:44:48;;;;;;;26.73;15.75;;;16.30;99.90;;;;;;5070218;28;20094;-81
2023/04/16 10:47:14;;;;;;;23.10;15.88;;;16.20;99.90;;;;;;5053972;28;20062;-82
2023/04/16 10:49:41;;;;;;;23.83;15.43;;;16.50;99.90;;;;;;5071480;28;20080;-82
2023/04/16 10:52:11;;;;;;;19.98;14.98;;;16.20;99.90;;;;;;5069949;28;20091;-82
2023/04/16 10:54:37;;;;;;;20.40;14.30;;;15.70;99.90;;;;;;5070600;28;20064;-81
2023/04/16 10:57:04;;;;;;;24.35;14.32;;;16.00;99.90;;;;;;5069832;28;20048;-84
2023/04/16 10:59:32;;;;;;;21.48;14.75;;;17.10;99.40;;;;;;5054150;28;20052;-80
2023/04/16 11:02:00;;;;;;;20.08;14.15;;;16.20;99.90;;;;;;5053681;28;20055;-81
2023/04/16 11:04:35;;;;;;;21.30;15.07;;;16.60;99.90;;;;;;5052675;28;20037;-80
2023/04/16 11:07:02;;;;;;;21.35;15.55;;;16.20;99.90;;;;;;5068805;28;20051;-82
2023/04/16 11:09:49;;;;;;;21.95;14.43;;;15.80;99.90;;;;;;5069306;28;20049;-83
2023/04/16 11:12:17;;;;;;;21.65;14.75;;;16.30;99.90;;;;;;5069467;28;20052;-85
2023/04/16 11:14:46;;;;;;;25.45;15.63;;;16.70;99.90;;;;;;5051227;28;20054;-85
2023/04/16 11:17:12;;;;;;;19.90;14.63;;;17.00;99.80;;;;;;5068654;28;20052;-83
2023/04/16 11:19:38;;;;;;;25.05;15.40;;;16.20;99.90;;;;;;5069340;28;20059;-87
2023/04/16 11:22:04;;;;;;;19.90;13.98;;;16.50;99.90;;;;;;5070264;28;20057;-83
2023/04/16 11:24:33;;;;;;;20.15;15.73;;;16.50;99.90;;;;;;5067815;28;20428;-85
2023/04/16 11:26:59;;;;;;;20.98;14.07;;;16.20;99.90;;;;;;5075781;28;20052;-83
2023/04/16 11:29:24;;;;;;;21.65;14.48;;;15.80;99.90;;;;;;5076567;28;20048;-83
2023/04/16 11:31:51;;;;;;;22.27;14.30;;;16.50;99.90;;;;;;5075230;28;20132;-82
2023/04/16 11:34:17;;;;;;;18.80;14.90;;;16.40;99.90;;;;;;5056382;28;20048;-87
2023/04/16 11:36:46;;;;;;;19.92;13.98;;;16.70;99.90;;;;;;5072291;28;20094;-87
2023/04/16 11:39:12;;;;;;;21.50;15.05;;;16.70;99.90;;;;;;5071564;28;20102;-85
2023/04/16 11:41:44;;;;;;;18.63;14.70;;;16.20;99.90;;;;;;5071636;28;20488;-81
2023/04/16 11:44:30;;;;;;;16.98;14.48;;;16.10;99.90;;;;;;5053006;28;20056;-82
2023/04/16 11:46:56;;;;;;;20.15;14.43;;;16.30;99.90;;;;;;5069297;28;20060;-84
2023/04/16 11:49:29;;;;;;;18.15;14.40;;;16.40;99.90;;;;;;5052988;28;20059;-83
2023/04/16 11:51:55;;;;;;;21.50;14.23;;;17.00;99.90;;;;;;5052778;28;20045;-82
2023/04/16 11:54:21;;;;;;;23.23;14.98;;;16.40;99.90;;;;;;5052730;28;20128;-83
2023/04/16 11:56:48;;;;;;;21.17;13.73;;;16.10;99.90;;;;;;5064085;28;20396;-83
2023/04/16 11:59:18;;;;;;;17.70;12.50;;;16.10;99.90;;;;;;5053695;28;20048;-84
2023/04/16 12:02:17;;;;;;;21.90;14.45;;;16.20;99.90;;;;;;5157343;27;20095;-84
2023/04/16 12:04:43;;;;;;;19.83;14.57;;;16.00;99.90;;;;;;5122834;27;20490;-85
2023/04/16 12:07:12;;;;;;;23.83;15.35;;;16.60;99.90;;;;;;5143953;27;20063;-85
2023/04/16 12:09:40;;;;;;;23.50;14.85;;;16.30;99.90;;;;;;5154317;27;20158;-84
2023/04/16 12:12:23;;;;;;;20.38;14.93;;;16.30;99.90;;;;;;5102172;27;20100;-85
2023/04/16 12:14:49;;;;;;;23.42;13.57;;;16.40;99.90;;;;;;5121368;27;20052;-84
2023/04/16 12:17:17;;;;;;;21.65;13.82;;;16.90;99.90;;;;;;5118906;27;20039;-83
2023/04/16 12:19:54;;;;;;;22.83;13.45;;;16.80;99.90;;;;;;5138021;27;20051;-85
2023/04/16 12:22:35;;;;;;;20.48;13.43;;;16.80;99.90;;;;;;5102565;27;20091;-84
2023/04/16 12:25:11;;;;;;;22.38;14.55;;;16.60;99.90;;;;;;5117786;27;20051;-85
2023/04/16 12:27:50;;;;;;;27.35;14.90;;;16.70;99.90;;;;;;5100624;27;20133;-84
2023/04/16 12:30:17;;;;;;;22.05;11.60;;;16.50;99.90;;;;;;5136195;27;20058;-83